Time;durP1;ratioP1;P1;durP2;ratioP2;P2;SDS_P1;SDS_P2;PMS_P1;PMS_P2;Temp;Humidity;BMP_temperature;BMP_pressure;BME280_temperature;BME280_humidity;BME280_pressure;Samples;Min_cycle;Max_cycle;Signal;HPM_P1;HPM_P2
2021/01/29 00:01:21;;;;;;;3.75;1.15;;;;;;;;;;5127339;27;20037;-61
2021/01/29 00:03:47;;;;;;;2.78;0.82;;;;;;;;;;5125977;27;20582;-61
2021/01/29 00:06:12;;;;;;;4.32;1.20;;;;;;;;;;5126719;27;20031;-61
2021/01/29 00:08:38;;;;;;;4.60;1.50;;;;;;;;;;5120761;27;20042;-61
2021/01/29 00:11:04;;;;;;;7.43;1.05;;;;;;;;;;5125560;27;20027;-61
2021/01/29 00:13:30;;;;;;;2.60;0.98;;;;;;;;;;5126678;27;21309;-61
2021/01/29 00:15:55;;;;;;;3.33;1.10;;;;;;;;;;5129446;27;20095;-62
2021/01/29 00:18:21;;;;;;;5.28;1.75;;;;;;;;;;5129829;27;20363;-60
2021/01/29 00:20:47;;;;;;;3.08;1.10;;;;;;;;;;5127383;27;20031;-60
2021/01/29 00:23:13;;;;;;;4.60;1.33;;;;;;;;;;5107567;28;20368;-61
2021/01/29 00:25:45;;;;;;;8.38;1.27;;;;;;;;;;5127028;27;20038;-60
2021/01/29 00:28:10;;;;;;;3.58;1.00;;;;;;;;;;5128130;27;20476;-60
2021/01/29 00:30:36;;;;;;;2.72;0.93;;;;;;;;;;5126497;27;20069;-61
2021/01/29 00:33:03;;;;;;;3.38;0.90;;;;;;;;;;5110768;27;20458;-61
2021/01/29 00:35:30;;;;;;;2.58;1.20;;;;;;;;;;5131589;27;20098;-61
2021/01/29 00:37:56;;;;;;;5.43;1.05;;;;;;;;;;5129609;27;20038;-61
2021/01/29 00:40:22;;;;;;;4.63;1.30;;;;;;;;;;5131338;27;20414;-61
2021/01/29 00:42:48;;;;;;;3.17;1.05;;;;;;;;;;5130920;27;20039;-61
2021/01/29 00:45:16;;;;;;;4.50;1.30;;;;;;;;;;5131834;27;20077;-61
2021/01/29 00:47:42;;;;;;;1.90;0.90;;;;;;;;;;5130106;27;20027;-61
2021/01/29 00:50:08;;;;;;;3.33;0.95;;;;;;;;;;5129113;27;20325;-61
2021/01/29 00:52:34;;;;;;;4.85;1.23;;;;;;;;;;5131327;27;20035;-61
2021/01/29 00:55:00;;;;;;;4.50;1.60;;;;;;;;;;5131632;27;20050;-61
2021/01/29 00:57:25;;;;;;;7.68;1.35;;;;;;;;;;5129421;27;20039;-61
2021/01/29 00:59:50;;;;;;;3.17;0.90;;;;;;;;;;5131434;27;20046;-61
2021/01/29 01:02:16;;;;;;;3.33;1.20;;;;;;;;;;5131121;27;20073;-61
2021/01/29 01:04:41;;;;;;;2.47;1.13;;;;;;;;;;5128443;27;20027;-61
2021/01/29 01:07:08;;;;;;;3.78;1.30;;;;;;;;;;5112257;27;20117;-61
2021/01/29 01:09:33;;;;;;;3.05;1.30;;;;;;;;;;5130618;27;20030;-61
2021/01/29 01:11:59;;;;;;;2.85;1.00;;;;;;;;;;5130900;27;20098;-61
2021/01/29 01:14:24;;;;;;;3.38;1.30;;;;;;;;;;5128944;27;20035;-61
2021/01/29 01:16:50;;;;;;;3.03;1.17;;;;;;;;;;5130609;27;20034;-61
2021/01/29 01:19:16;;;;;;;1.67;0.80;;;;;;;;;;5131141;27;20023;-61
2021/01/29 01:21:41;;;;;;;2.80;0.90;;;;;;;;;;5129797;27;20019;-61
2021/01/29 01:24:07;;;;;;;5.85;1.60;;;;;;;;;;5128976;27;20430;-61
2021/01/29 01:26:33;;;;;;;2.70;1.20;;;;;;;;;;5130143;27;20095;-61
2021/01/29 01:28:58;;;;;;;3.47;1.25;;;;;;;;;;5131187;27;20038;-61
2021/01/29 01:31:23;;;;;;;4.90;1.40;;;;;;;;;;5129415;27;20092;-61
2021/01/29 01:33:49;;;;;;;3.88;1.33;;;;;;;;;;5130487;27;20035;-61
2021/01/29 01:36:14;;;;;;;2.50;1.13;;;;;;;;;;5130862;27;20035;-61
2021/01/29 01:38:40;;;;;;;3.60;1.08;;;;;;;;;;5130090;27;20023;-61
2021/01/29 01:41:06;;;;;;;4.28;1.30;;;;;;;;;;5128313;27;20050;-61
2021/01/29 01:43:32;;;;;;;3.72;1.20;;;;;;;;;;5109746;27;20439;-61
2021/01/29 01:46:12;;;;;;;3.45;1.30;;;;;;;;;;5130374;27;20039;-61
2021/01/29 01:48:54;;;;;;;3.80;1.40;;;;;;;;;;5129399;27;20035;-61
2021/01/29 01:51:30;;;;;;;5.28;1.50;;;;;;;;;;5130701;27;20302;-61
2021/01/29 01:53:59;;;;;;;4.13;1.58;;;;;;;;;;5129976;27;20031;-61
2021/01/29 01:56:45;;;;;;;2.20;1.25;;;;;;;;;;5127414;27;20035;-61
2021/01/29 01:59:17;;;;;;;2.63;1.20;;;;;;;;;;5129905;27;20092;-61
2021/01/29 02:01:44;;;;;;;4.63;1.70;;;;;;;;;;5127957;27;20030;-61
2021/01/29 02:04:12;;;;;;;3.80;1.30;;;;;;;;;;5129102;27;20039;-61
2021/01/29 02:06:56;;;;;;;3.72;1.45;;;;;;;;;;5129886;27;20036;-61
2021/01/29 02:09:23;;;;;;;3.10;1.25;;;;;;;;;;5129073;27;20500;-61
2021/01/29 02:11:50;;;;;;;4.25;1.55;;;;;;;;;;5127706;27;20043;-61
2021/01/29 02:14:15;;;;;;;2.70;1.52;;;;;;;;;;5127807;27;20539;-62
2021/01/29 02:17:12;;;;;;;4.63;1.73;;;;;;;;;;5128795;27;20041;-61
2021/01/29 02:19:53;;;;;;;3.78;1.67;;;;;;;;;;5129758;27;20083;-61
2021/01/29 02:22:52;;;;;;;3.17;1.38;;;;;;;;;;5126855;27;20478;-61
2021/01/29 02:26:11;;;;;;;3.67;1.85;;;;;;;;;;5129277;27;20047;-61
2021/01/29 02:28:51;;;;;;;4.47;1.70;;;;;;;;;;5027413;28;20370;-62
2021/01/29 02:31:28;;;;;;;6.40;2.07;;;;;;;;;;5127948;27;20443;-61
2021/01/29 02:34:05;;;;;;;4.20;1.77;;;;;;;;;;5130273;27;20293;-61
2021/01/29 02:37:04;;;;;;;4.50;1.90;;;;;;;;;;5130151;27;20463;-61
2021/01/29 02:39:48;;;;;;;3.58;1.80;;;;;;;;;;5129012;27;20475;-61
2021/01/29 02:42:19;;;;;;;5.43;1.92;;;;;;;;;;5129730;27;20478;-61
2021/01/29 02:44:58;;;;;;;;;;;;;;;;;;5110699;27;20031;-62
2021/01/29 02:47:28;;;;;;;5.35;1.80;;;;;;;;;;5130591;27;19934;-61
2021/01/29 02:49:56;;;;;;;3.55;1.58;;;;;;;;;;5109440;27;20038;-61
2021/01/29 02:53:01;;;;;;;3.10;1.63;;;;;;;;;;5128603;27;20039;-61
2021/01/29 02:55:35;;;;;;;3.55;1.23;;;;;;;;;;5107317;27;20039;-61
2021/01/29 02:58:10;;;;;;;3.03;1.33;;;;;;;;;;5108593;27;20096;-61
2021/01/29 03:00:42;;;;;;;6.05;1.77;;;;;;;;;;5128937;27;20031;-61
2021/01/29 03:03:31;;;;;;;3.28;1.67;;;;;;;;;;5126724;27;20031;-61
2021/01/29 03:06:02;;;;;;;3.53;1.52;;;;;;;;;;5127926;27;20799;-61
2021/01/29 03:08:38;;;;;;;5.35;2.13;;;;;;;;;;5110034;27;20023;-61
2021/01/29 03:11:20;;;;;;;6.18;1.90;;;;;;;;;;5129011;27;20071;-62
2021/01/29 03:14:17;;;;;;;5.88;2.15;;;;;;;;;;5128626;27;20027;-62
2021/01/29 03:16:50;;;;;;;4.82;1.75;;;;;;;;;;5126833;27;20176;-61
2021/01/29 03:19:32;;;;;;;4.18;1.67;;;;;;;;;;5129949;27;20093;-62
2021/01/29 03:22:11;;;;;;;9.40;2.33;;;;;;;;;;5127446;27;20122;-62
2021/01/29 03:24:43;;;;;;;10.82;3.17;;;;;;;;;;5129557;27;20038;-61
2021/01/29 03:27:22;;;;;;;6.28;2.70;;;;;;;;;;5129060;27;20031;-61
2021/01/29 03:29:54;;;;;;;4.00;2.60;;;;;;;;;;5123381;27;20045;-61
2021/01/29 03:32:20;;;;;;;8.85;3.05;;;;;;;;;;5129865;27;20065;-61
2021/01/29 03:34:54;;;;;;;7.03;3.20;;;;;;;;;;5127128;27;20019;-61
2021/01/29 03:37:27;;;;;;;6.10;3.20;;;;;;;;;;5128228;27;20043;-61
2021/01/29 03:39:54;;;;;;;8.60;4.63;;;;;;;;;;5127632;27;20108;-61
2021/01/29 03:42:32;;;;;;;11.75;4.80;;;;;;;;;;5128271;27;20479;-61
2021/01/29 03:45:11;;;;;;;12.55;5.50;;;;;;;;;;5127299;27;20045;-61
2021/01/29 03:47:57;;;;;;;8.95;5.85;;;;;;;;;;5124985;27;20110;-61
2021/01/29 03:50:35;;;;;;;10.48;6.03;;;;;;;;;;5127883;27;20038;-61
2021/01/29 03:53:25;;;;;;;7.88;6.00;;;;;;;;;;5112707;28;20054;-61
2021/01/29 03:56:02;;;;;;;12.25;7.45;;;;;;;;;;5127260;27;20571;-61
2021/01/29 03:58:39;;;;;;;12.13;7.43;;;;;;;;;;5107005;27;20043;-61
2021/01/29 04:01:26;;;;;;;11.55;7.90;;;;;;;;;;5127545;27;20034;-61
2021/01/29 04:04:18;;;;;;;10.30;7.45;;;;;;;;;;5116675;27;20050;-61
2021/01/29 04:06:50;;;;;;;;;;;;;;;;;;5097193;27;20042;-61
2021/01/29 04:09:25;;;;;;;9.73;7.43;;;;;;;;;;5131978;27;19908;-61
2021/01/29 04:11:58;;;;;;;7.75;6.35;;;;;;;;;;5129558;27;20050;-61
2021/01/29 04:14:33;;;;;;;9.43;7.03;;;;;;;;;;5130439;27;20042;-61
2021/01/29 04:17:02;;;;;;;10.32;7.18;;;;;;;;;;5131207;27;20039;-61
2021/01/29 04:19:30;;;;;;;10.52;7.15;;;;;;;;;;5132631;27;20098;-61
2021/01/29 04:22:18;;;;;;;10.27;6.80;;;;;;;;;;5126992;27;20154;-61
2021/01/29 04:24:53;;;;;;;7.55;6.45;;;;;;;;;;5118206;27;20037;-61
2021/01/29 04:27:24;;;;;;;9.05;7.45;;;;;;;;;;5130666;27;20019;-61
2021/01/29 04:30:09;;;;;;;;;;;;;;;;;;5130180;27;20059;-61
2021/01/29 04:32:39;;;;;;;9.35;6.53;;;;;;;;;;5130254;27;19912;-61
2021/01/29 04:35:08;;;;;;;9.75;6.88;;;;;;;;;;5131557;27;20034;-59
2021/01/29 04:37:38;;;;;;;10.10;7.07;;;;;;;;;;5130259;27;20039;-61
2021/01/29 04:40:26;;;;;;;6.83;6.10;;;;;;;;;;5131079;27;20059;-60
2021/01/29 04:43:10;;;;;;;7.43;5.97;;;;;;;;;;5114959;27;20129;-60
2021/01/29 04:45:54;;;;;;;8.43;7.32;;;;;;;;;;5129656;27;20041;-60
2021/01/29 04:48:36;;;;;;;10.82;7.45;;;;;;;;;;5129471;27;20073;-60
2021/01/29 04:51:36;;;;;;;8.52;7.63;;;;;;;;;;5130328;27;20118;-60
2021/01/29 04:54:17;;;;;;;11.88;8.27;;;;;;;;;;5115656;27;20161;-60
2021/01/29 04:57:03;;;;;;;10.43;9.32;;;;;;;;;;5126740;27;20031;-60
2021/01/29 04:59:40;;;;;;;8.80;7.90;;;;;;;;;;5130584;27;20509;-60
2021/01/29 05:02:36;;;;;;;8.38;7.53;;;;;;;;;;5130748;27;20031;-60
2021/01/29 05:05:25;;;;;;;9.10;7.45;;;;;;;;;;5128255;27;20100;-60
2021/01/29 05:08:03;;;;;;;8.23;7.43;;;;;;;;;;5130837;27;20114;-60
2021/01/29 05:10:37;;;;;;;8.32;6.53;;;;;;;;;;5130610;27;20031;-60
2021/01/29 05:13:39;;;;;;;9.82;6.57;;;;;;;;;;5130896;27;20080;-60
2021/01/29 05:16:32;;;;;;;6.90;6.00;;;;;;;;;;5128415;27;20031;-60
2021/01/29 05:19:09;;;;;;;6.80;5.93;;;;;;;;;;5128873;27;20155;-60
2021/01/29 05:21:59;;;;;;;9.32;4.85;;;;;;;;;;5129973;27;20036;-60
2021/01/29 05:24:42;;;;;;;5.90;4.82;;;;;;;;;;5129230;27;20039;-60
2021/01/29 05:27:26;;;;;;;5.13;4.30;;;;;;;;;;5127486;27;20053;-60
2021/01/29 05:30:20;;;;;;;5.45;4.18;;;;;;;;;;5126533;27;20039;-60
2021/01/29 05:33:08;;;;;;;5.25;3.72;;;;;;;;;;5127010;27;20031;-60
2021/01/29 05:36:21;;;;;;;6.15;4.05;;;;;;;;;;5129620;27;20019;-60
2021/01/29 05:39:20;;;;;;;5.68;3.60;;;;;;;;;;5047567;27;20051;-60
2021/01/29 05:42:07;;;;;;;5.93;3.20;;;;;;;;;;5128131;27;20042;-60
2021/01/29 05:44:50;;;;;;;5.78;3.70;;;;;;;;;;5128857;27;20046;-60
2021/01/29 05:47:29;;;;;;;5.72;3.30;;;;;;;;;;5131356;27;20042;-60
2021/01/29 05:50:24;;;;;;;6.70;3.30;;;;;;;;;;5128800;27;20031;-60
2021/01/29 05:53:03;;;;;;;4.82;2.85;;;;;;;;;;5128008;27;20035;-60
2021/01/29 05:55:45;;;;;;;3.78;2.35;;;;;;;;;;5131806;27;20043;-60
2021/01/29 05:58:28;;;;;;;;;;;;;;;;;;5128687;27;20035;-60
2021/01/29 06:01:40;;;;;;;4.03;1.98;;;;;;;;;;5126503;27;19918;-60
2021/01/29 06:04:41;;;;;;;4.53;2.72;;;;;;;;;;5128837;27;20613;-60
2021/01/29 06:07:28;;;;;;;7.63;2.70;;;;;;;;;;5059584;27;20047;-60
2021/01/29 06:10:10;;;;;;;4.18;2.50;;;;;;;;;;5128324;27;20031;-60
2021/01/29 06:12:54;;;;;;;5.88;3.50;;;;;;;;;;5130727;27;20368;-60
2021/01/29 06:15:56;;;;;;;7.60;4.40;;;;;;;;;;5129693;27;20042;-60
2021/01/29 06:18:24;;;;;;;7.13;5.35;;;;;;;;;;5128979;27;20035;-60
2021/01/29 06:21:24;;;;;;;6.55;5.28;;;;;;;;;;5128832;27;20106;-60
2021/01/29 06:24:27;;;;;;;5.68;4.50;;;;;;;;;;5129039;27;20093;-60
2021/01/29 06:27:13;;;;;;;6.15;3.60;;;;;;;;;;5086561;27;20134;-60
2021/01/29 06:30:08;;;;;;;4.95;3.80;;;;;;;;;;5130673;27;20293;-60
2021/01/29 06:32:53;;;;;;;4.45;2.90;;;;;;;;;;5129495;27;20027;-60
2021/01/29 06:35:34;;;;;;;3.63;2.03;;;;;;;;;;5126971;27;20417;-60
2021/01/29 06:38:19;;;;;;;3.67;2.08;;;;;;;;;;5129083;27;20035;-60
2021/01/29 06:41:18;;;;;;;2.13;1.10;;;;;;;;;;5128346;27;20027;-60
2021/01/29 06:44:10;;;;;;;3.17;0.90;;;;;;;;;;5127062;27;20038;-60
2021/01/29 06:46:42;;;;;;;1.00;0.60;;;;;;;;;;5128117;27;20035;-60
2021/01/29 06:49:30;;;;;;;6.18;0.73;;;;;;;;;;5128412;27;20400;-60
2021/01/29 06:52:20;;;;;;;1.02;0.60;;;;;;;;;;5128872;27;20039;-60
2021/01/29 06:55:00;;;;;;;0.73;0.40;;;;;;;;;;5127211;27;20110;-60
2021/01/29 06:58:00;;;;;;;0.77;0.50;;;;;;;;;;5108725;27;20041;-60
2021/01/29 07:00:53;;;;;;;1.08;0.55;;;;;;;;;;5080601;27;20121;-60
2021/01/29 07:03:44;;;;;;;1.33;0.70;;;;;;;;;;5128575;27;20468;-60
2021/01/29 07:06:44;;;;;;;0.40;0.30;;;;;;;;;;5127346;27;20586;-60
2021/01/29 07:09:15;;;;;;;0.30;0.30;;;;;;;;;;5121549;27;20100;-59
2021/01/29 07:12:20;;;;;;;0.28;0.28;;;;;;;;;;5129837;27;20026;-60
2021/01/29 07:15:09;;;;;;;2.17;0.40;;;;;;;;;;5128580;27;20039;-60
2021/01/29 07:17:56;;;;;;;0.30;0.20;;;;;;;;;;5120155;27;20031;-60
2021/01/29 07:20:36;;;;;;;0.38;0.30;;;;;;;;;;5126530;27;20038;-60
2021/01/29 07:23:07;;;;;;;0.20;0.20;;;;;;;;;;5127274;27;20045;-60
2021/01/29 07:25:36;;;;;;;;;;;;;;;;;;5123029;27;20098;-59
2021/01/29 07:28:52;;;;;;;0.40;0.30;;;;;;;;;;5125405;27;19995;-59
2021/01/29 07:31:20;;;;;;;0.30;0.30;;;;;;;;;;5082993;28;20078;-60
2021/01/29 07:34:19;;;;;;;0.57;0.43;;;;;;;;;;5124135;27;20041;-60
2021/01/29 07:37:04;;;;;;;1.95;0.60;;;;;;;;;;5124340;27;20030;-60
2021/01/29 07:39:59;;;;;;;1.92;0.30;;;;;;;;;;5126322;27;20084;-59
2021/01/29 07:42:42;;;;;;;1.60;0.40;;;;;;;;;;5082739;27;20043;-60
2021/01/29 07:45:15;;;;;;;0.40;0.30;;;;;;;;;;5113165;27;20031;-59
2021/01/29 07:48:12;;;;;;;1.80;0.50;;;;;;;;;;5109084;27;20039;-60
2021/01/29 07:50:48;;;;;;;0.73;0.30;;;;;;;;;;5090490;27;20043;-60
2021/01/29 07:53:28;;;;;;;1.15;0.30;;;;;;;;;;5131637;27;20109;-60
2021/01/29 07:56:21;;;;;;;0.60;0.40;;;;;;;;;;5128497;27;20042;-59
2021/01/29 07:59:04;;;;;;;1.27;0.50;;;;;;;;;;5126711;27;20095;-60
2021/01/29 08:02:07;;;;;;;0.77;0.40;;;;;;;;;;5129468;27;20043;-60
2021/01/29 08:04:35;;;;;;;5.80;0.60;;;;;;;;;;5124372;27;20523;-59
2021/01/29 08:07:23;;;;;;;1.42;0.50;;;;;;;;;;5121318;27;20042;-59
2021/01/29 08:09:55;;;;;;;0.75;0.57;;;;;;;;;;5125386;27;20038;-60
2021/01/29 08:12:22;;;;;;;0.70;0.40;;;;;;;;;;5115048;27;20061;-59
2021/01/29 08:15:28;;;;;;;0.70;0.50;;;;;;;;;;5116522;27;20043;-60
2021/01/29 08:18:13;;;;;;;3.15;0.60;;;;;;;;;;5127745;27;20130;-60
2021/01/29 08:21:06;;;;;;;0.70;0.32;;;;;;;;;;5123215;27;20046;-60
2021/01/29 08:24:09;;;;;;;1.10;0.60;;;;;;;;;;5125340;27;20536;-59
2021/01/29 08:26:40;;;;;;;1.17;0.47;;;;;;;;;;5125058;27;20152;-60
2021/01/29 08:29:33;;;;;;;0.90;0.40;;;;;;;;;;5127196;27;20096;-60
2021/01/29 08:32:07;;;;;;;0.93;0.60;;;;;;;;;;5124156;27;20100;-60
2021/01/29 08:35:03;;;;;;;0.70;0.50;;;;;;;;;;5115053;27;20088;-60
2021/01/29 08:37:46;;;;;;;1.15;0.50;;;;;;;;;;5122868;27;20032;-60
2021/01/29 08:40:30;;;;;;;0.90;0.50;;;;;;;;;;5120565;27;20024;-60
2021/01/29 08:43:21;;;;;;;3.08;1.08;;;;;;;;;;5119038;27;20123;-60
2021/01/29 08:46:00;;;;;;;1.17;0.50;;;;;;;;;;5098786;27;20656;-60
2021/01/29 08:48:55;;;;;;;0.47;0.40;;;;;;;;;;5120507;27;20054;-60
2021/01/29 08:51:39;;;;;;;1.50;0.60;;;;;;;;;;5121481;27;20125;-61
2021/01/29 08:54:26;;;;;;;3.72;0.90;;;;;;;;;;5123060;27;20774;-60
2021/01/29 08:57:03;;;;;;;0.50;0.30;;;;;;;;;;5128801;27;20039;-60
2021/01/29 08:59:34;;;;;;;3.30;0.70;;;;;;;;;;5128588;27;20522;-60
2021/01/29 09:02:22;;;;;;;1.38;0.52;;;;;;;;;;5130527;27;20217;-60
2021/01/29 09:04:48;;;;;;;0.80;0.43;;;;;;;;;;5128245;27;20105;-61
2021/01/29 09:07:41;;;;;;;1.02;0.35;;;;;;;;;;5128403;27;20666;-60
2021/01/29 09:10:13;;;;;;;6.18;0.68;;;;;;;;;;5102857;27;20400;-60
2021/01/29 09:12:40;;;;;;;4.72;1.20;;;;;;;;;;5126439;27;20070;-60
2021/01/29 09:15:16;;;;;;;3.15;0.90;;;;;;;;;;5128068;27;20117;-60
2021/01/29 09:17:52;;;;;;;4.38;1.17;;;;;;;;;;5126727;27;20127;-60
2021/01/29 09:20:26;;;;;;;2.78;1.00;;;;;;;;;;5123881;27;20058;-61
2021/01/29 09:22:57;;;;;;;3.97;0.90;;;;;;;;;;5125110;27;20030;-60
2021/01/29 09:25:35;;;;;;;6.95;1.00;;;;;;;;;;5123549;27;20117;-61
2021/01/29 09:28:14;;;;;;;3.45;1.42;;;;;;;;;;5119282;27;20112;-61
2021/01/29 09:30:48;;;;;;;5.72;1.42;;;;;;;;;;5126731;27;20043;-61
2021/01/29 09:33:28;;;;;;;3.50;1.23;;;;;;;;;;5125872;27;20030;-60
2021/01/29 09:35:57;;;;;;;7.88;1.60;;;;;;;;;;5124951;27;20096;-60
2021/01/29 09:38:30;;;;;;;7.60;1.60;;;;;;;;;;5118996;27;20072;-60
2021/01/29 09:41:11;;;;;;;5.63;1.27;;;;;;;;;;5105275;27;20108;-60
2021/01/29 09:43:53;;;;;;;5.30;1.58;;;;;;;;;;5108276;27;20027;-61
2021/01/29 09:46:28;;;;;;;7.00;1.70;;;;;;;;;;5106130;27;20518;-61
2021/01/29 09:49:09;;;;;;;10.13;1.83;;;;;;;;;;5111752;27;20031;-61
2021/01/29 09:51:49;;;;;;;6.15;1.42;;;;;;;;;;5112974;27;20538;-61
2021/01/29 09:54:24;;;;;;;9.35;1.95;;;;;;;;;;5114428;27;20429;-61
2021/01/29 09:56:55;;;;;;;9.10;1.50;;;;;;;;;;5126715;27;20418;-61
2021/01/29 09:59:48;;;;;;;7.00;2.33;;;;;;;;;;5127758;27;20035;-62
2021/01/29 10:02:25;;;;;;;7.57;1.92;;;;;;;;;;5104164;27;20035;-61
2021/01/29 10:05:16;;;;;;;8.93;1.77;;;;;;;;;;5128074;27;20027;-61
2021/01/29 10:07:48;;;;;;;9.27;2.10;;;;;;;;;;5111044;27;20023;-62
2021/01/29 10:10:28;;;;;;;10.20;2.60;;;;;;;;;;5126947;27;20110;-61
2021/01/29 10:13:03;;;;;;;9.35;2.47;;;;;;;;;;5127135;27;20042;-61
2021/01/29 10:15:35;;;;;;;15.07;3.00;;;;;;;;;;5108009;27;20464;-61
2021/01/29 10:18:21;;;;;;;14.95;3.17;;;;;;;;;;5124529;27;20667;-62
2021/01/29 10:20:46;;;;;;;10.52;2.70;;;;;;;;;;5128079;27;20122;-61
2021/01/29 10:23:37;;;;;;;12.82;3.03;;;;;;;;;;5123628;27;20121;-61
2021/01/29 10:26:20;;;;;;;12.70;2.20;;;;;;;;;;5126565;27;20118;-61
2021/01/29 10:29:20;;;;;;;17.60;3.17;;;;;;;;;;5126981;27;20270;-61
2021/01/29 10:32:05;;;;;;;8.07;2.33;;;;;;;;;;5126924;27;20153;-61
2021/01/29 10:34:43;;;;;;;11.27;2.40;;;;;;;;;;5127097;27;20031;-61
2021/01/29 10:37:23;;;;;;;9.15;2.13;;;;;;;;;;5124458;27;20042;-62
2021/01/29 10:39:54;;;;;;;14.10;2.28;;;;;;;;;;5106893;27;20041;-62
2021/01/29 10:42:26;;;;;;;;;;;;;;;;;;5127090;27;20039;-63
2021/01/29 10:44:52;;;;;;;9.25;3.05;;;;;;;;;;5123594;27;20363;-63
2021/01/29 10:47:23;;;;;;;13.10;2.97;;;;;;;;;;5124714;27;20037;-63
2021/01/29 10:50:10;;;;;;;10.27;2.10;;;;;;;;;;5127641;27;20035;-63
2021/01/29 10:53:01;;;;;;;12.57;2.88;;;;;;;;;;5126947;27;20034;-63
2021/01/29 10:55:33;;;;;;;9.90;2.53;;;;;;;;;;5126361;27;20099;-63
2021/01/29 10:58:09;;;;;;;11.02;2.08;;;;;;;;;;5126653;27;20486;-64
2021/01/29 11:00:36;;;;;;;11.13;3.05;;;;;;;;;;5124842;27;20632;-64
2021/01/29 11:03:11;;;;;;;8.93;2.10;;;;;;;;;;5125781;27;20030;-63
2021/01/29 11:05:44;;;;;;;15.98;2.85;;;;;;;;;;5124116;27;20063;-64
2021/01/29 11:08:28;;;;;;;10.40;2.38;;;;;;;;;;5124636;27;20039;-63
2021/01/29 11:11:22;;;;;;;8.90;2.53;;;;;;;;;;5122884;27;20035;-63
2021/01/29 11:13:58;;;;;;;12.35;2.83;;;;;;;;;;5110686;27;20047;-63
2021/01/29 11:16:40;;;;;;;13.80;2.20;;;;;;;;;;5121329;27;20092;-62
2021/01/29 11:19:10;;;;;;;9.05;2.22;;;;;;;;;;5125124;27;20091;-62
2021/01/29 11:21:47;;;;;;;9.68;2.53;;;;;;;;;;5124079;27;20034;-62
2021/01/29 11:24:22;;;;;;;9.95;2.60;;;;;;;;;;5120175;27;20039;-62
2021/01/29 11:27:17;;;;;;;6.50;1.80;;;;;;;;;;5107251;27;20038;-60
2021/01/29 11:30:02;;;;;;;8.60;2.45;;;;;;;;;;5067648;28;20063;-62
2021/01/29 11:32:35;;;;;;;8.77;2.15;;;;;;;;;;5119409;27;20050;-61
2021/01/29 11:35:23;;;;;;;10.48;2.30;;;;;;;;;;5104992;28;20034;-61
2021/01/29 11:37:58;;;;;;;8.68;2.20;;;;;;;;;;5124197;27;20536;-61
2021/01/29 11:40:28;;;;;;;8.60;2.38;;;;;;;;;;5125107;27;20042;-61
2021/01/29 11:43:07;;;;;;;8.10;1.85;;;;;;;;;;5125032;27;20134;-62
2021/01/29 11:45:47;;;;;;;7.32;2.00;;;;;;;;;;5125043;27;20495;-62
2021/01/29 11:48:31;;;;;;;12.98;2.08;;;;;;;;;;5120875;27;20043;-62
2021/01/29 11:51:07;;;;;;;8.57;2.08;;;;;;;;;;5122228;27;20513;-60
2021/01/29 11:53:39;;;;;;;8.05;1.80;;;;;;;;;;5121283;27;20027;-60
2021/01/29 11:56:16;;;;;;;10.57;2.10;;;;;;;;;;5121683;27;20041;-60
2021/01/29 11:58:53;;;;;;;7.00;1.67;;;;;;;;;;5120856;27;20045;-60
2021/01/29 12:01:35;;;;;;;9.25;2.13;;;;;;;;;;5122312;27;20031;-60
2021/01/29 12:04:28;;;;;;;6.93;1.80;;;;;;;;;;5124419;27;20045;-60
2021/01/29 12:07:15;;;;;;;6.88;1.88;;;;;;;;;;5123733;27;20168;-61
2021/01/29 12:10:05;;;;;;;7.30;1.70;;;;;;;;;;5124286;27;20114;-60
2021/01/29 12:12:48;;;;;;;8.82;1.95;;;;;;;;;;5122093;27;20046;-60
2021/01/29 12:15:25;;;;;;;6.05;1.52;;;;;;;;;;5120830;27;20039;-60
2021/01/29 12:17:55;;;;;;;9.45;1.38;;;;;;;;;;5124897;27;20042;-61
2021/01/29 12:20:25;;;;;;;2.90;1.27;;;;;;;;;;5125512;27;20050;-60
2021/01/29 12:23:15;;;;;;;3.92;1.20;;;;;;;;;;5124882;27;20046;-60
2021/01/29 12:25:51;;;;;;;4.40;1.42;;;;;;;;;;5105709;27;20070;-60
2021/01/29 12:28:54;;;;;;;7.43;1.35;;;;;;;;;;5126567;27;20039;-60
2021/01/29 12:31:43;;;;;;;3.72;0.95;;;;;;;;;;5128116;27;20066;-60
2021/01/29 12:34:14;;;;;;;3.97;1.17;;;;;;;;;;5129417;27;20027;-60
2021/01/29 12:36:40;;;;;;;;;;;;;;;;;;5128832;27;20130;-60
2021/01/29 12:39:33;;;;;;;2.47;0.90;;;;;;;;;;5128295;27;20456;-61
2021/01/29 12:42:04;;;;;;;4.15;1.52;;;;;;;;;;5129371;27;20391;-61
2021/01/29 12:44:46;;;;;;;4.80;1.10;;;;;;;;;;5129274;27;20436;-60
2021/01/29 12:47:22;;;;;;;6.95;1.20;;;;;;;;;;5129447;27;20791;-60
2021/01/29 12:50:00;;;;;;;4.97;1.30;;;;;;;;;;5125775;27;20070;-61
2021/01/29 12:52:41;;;;;;;4.13;1.17;;;;;;;;;;5127381;27;20060;-61
2021/01/29 12:55:15;;;;;;;5.03;1.87;;;;;;;;;;5128863;27;20489;-61
2021/01/29 12:57:40;;;;;;;5.70;1.67;;;;;;;;;;5108145;27;20034;-60
2021/01/29 13:00:06;;;;;;;9.98;1.48;;;;;;;;;;5128571;27;20035;-61
2021/01/29 13:02:50;;;;;;;5.80;1.40;;;;;;;;;;5125452;27;20444;-60
2021/01/29 13:05:49;;;;;;;8.10;1.70;;;;;;;;;;5127474;27;20120;-60
2021/01/29 13:08:37;;;;;;;5.53;1.40;;;;;;;;;;5109429;27;20474;-61
2021/01/29 13:11:32;;;;;;;7.40;1.77;;;;;;;;;;5126578;27;20024;-60
2021/01/29 13:14:31;;;;;;;6.30;1.83;;;;;;;;;;5126634;27;20543;-60
2021/01/29 13:17:17;;;;;;;5.82;1.50;;;;;;;;;;5127401;27;20027;-60
2021/01/29 13:19:44;;;;;;;8.00;1.73;;;;;;;;;;5127343;27;20065;-60
2021/01/29 13:22:18;;;;;;;8.48;1.60;;;;;;;;;;5110231;27;20031;-60
2021/01/29 13:25:00;;;;;;;6.40;1.88;;;;;;;;;;5123864;27;20046;-61
2021/01/29 13:27:32;;;;;;;4.97;1.50;;;;;;;;;;5125505;27;20042;-60
2021/01/29 13:30:14;;;;;;;9.38;2.53;;;;;;;;;;5108737;27;20091;-61
2021/01/29 13:32:41;;;;;;;13.27;1.85;;;;;;;;;;5125253;27;20047;-61
2021/01/29 13:35:09;;;;;;;7.82;2.10;;;;;;;;;;5127243;27;20066;-60
2021/01/29 13:37:36;;;;;;;9.63;2.10;;;;;;;;;;5127011;27;20049;-61
2021/01/29 13:40:27;;;;;;;9.98;2.55;;;;;;;;;;5127175;27;20555;-61
2021/01/29 13:42:54;;;;;;;6.93;2.03;;;;;;;;;;5125473;27;20053;-60
2021/01/29 13:45:29;;;;;;;7.13;2.00;;;;;;;;;;5126559;27;20114;-61
2021/01/29 13:48:06;;;;;;;8.75;2.10;;;;;;;;;;5125272;27;20050;-61
2021/01/29 13:50:37;;;;;;;11.95;2.17;;;;;;;;;;5126014;27;20122;-62
2021/01/29 13:53:06;;;;;;;5.90;1.95;;;;;;;;;;5124730;27;20031;-61
2021/01/29 13:55:41;;;;;;;9.65;1.98;;;;;;;;;;5125907;27;20141;-60
2021/01/29 13:58:14;;;;;;;18.10;2.20;;;;;;;;;;5126694;27;20046;-61
2021/01/29 14:01:04;;;;;;;8.50;2.03;;;;;;;;;;5126430;27;20072;-61
2021/01/29 14:03:40;;;;;;;7.75;1.88;;;;;;;;;;5121379;27;20046;-61
2021/01/29 14:06:07;;;;;;;5.68;2.45;;;;;;;;;;5127115;27;20060;-61
2021/01/29 14:08:33;;;;;;;8.13;1.90;;;;;;;;;;5127006;27;20087;-60
2021/01/29 14:11:13;;;;;;;5.25;1.60;;;;;;;;;;5126418;27;20056;-60
2021/01/29 14:13:46;;;;;;;6.73;1.47;;;;;;;;;;5126895;27;20167;-61
2021/01/29 14:16:22;;;;;;;9.45;1.90;;;;;;;;;;5108702;27;20031;-60
2021/01/29 14:19:02;;;;;;;6.97;1.65;;;;;;;;;;5125959;27;20114;-60
2021/01/29 14:21:53;;;;;;;6.63;1.35;;;;;;;;;;5126020;27;20074;-60
2021/01/29 14:24:46;;;;;;;7.75;1.50;;;;;;;;;;5126574;27;20046;-60
2021/01/29 14:27:44;;;;;;;7.70;1.40;;;;;;;;;;5119406;27;20131;-61
2021/01/29 14:30:27;;;;;;;4.78;1.75;;;;;;;;;;5123892;27;20031;-60
2021/01/29 14:33:28;;;;;;;4.65;1.50;;;;;;;;;;5126011;27;20129;-61
2021/01/29 14:36:12;;;;;;;4.68;1.75;;;;;;;;;;5124056;27;20639;-60
2021/01/29 14:38:40;;;;;;;4.90;1.25;;;;;;;;;;5123370;27;20046;-62
2021/01/29 14:41:17;;;;;;;5.03;1.58;;;;;;;;;;5125366;27;20027;-61
2021/01/29 14:43:55;;;;;;;3.58;1.38;;;;;;;;;;5122782;27;20041;-60
2021/01/29 14:46:39;;;;;;;4.00;1.35;;;;;;;;;;5122162;27;20066;-60
2021/01/29 14:49:43;;;;;;;6.03;1.50;;;;;;;;;;5125744;27;20087;-61
2021/01/29 14:52:16;;;;;;;6.13;1.55;;;;;;;;;;5116210;27;20055;-60
2021/01/29 14:54:55;;;;;;;5.50;1.13;;;;;;;;;;5089234;27;20035;-61
2021/01/29 14:57:34;;;;;;;6.45;1.88;;;;;;;;;;5123729;27;20035;-61
2021/01/29 15:00:14;;;;;;;6.53;1.48;;;;;;;;;;5124734;27;20529;-61
2021/01/29 15:02:56;;;;;;;5.82;2.03;;;;;;;;;;5106556;27;20081;-60
2021/01/29 15:05:29;;;;;;;5.07;1.95;;;;;;;;;;5121034;27;20118;-60
2021/01/29 15:07:56;;;;;;;5.97;1.52;;;;;;;;;;5123459;27;20042;-60
2021/01/29 15:10:25;;;;;;;3.78;1.27;;;;;;;;;;5125308;27;20039;-60
2021/01/29 15:12:52;;;;;;;5.53;1.73;;;;;;;;;;5127223;27;20031;-61
2021/01/29 15:15:20;;;;;;;2.83;1.02;;;;;;;;;;5124452;27;20084;-60
2021/01/29 15:17:59;;;;;;;5.88;1.58;;;;;;;;;;5125570;27;20169;-60
2021/01/29 15:20:34;;;;;;;4.32;1.15;;;;;;;;;;5125088;27;20062;-61
2021/01/29 15:23:24;;;;;;;3.45;1.20;;;;;;;;;;5125054;27;20468;-61
2021/01/29 15:25:52;;;;;;;6.57;1.60;;;;;;;;;;5125468;27;20089;-61
2021/01/29 15:28:27;;;;;;;4.18;1.42;;;;;;;;;;5123606;27;20479;-60
2021/01/29 15:30:52;;;;;;;5.05;1.40;;;;;;;;;;5126085;27;20104;-61
2021/01/29 15:33:27;;;;;;;5.43;1.45;;;;;;;;;;5125938;27;20043;-60
2021/01/29 15:36:12;;;;;;;4.32;1.23;;;;;;;;;;5126921;27;20039;-60
2021/01/29 15:38:41;;;;;;;3.28;1.25;;;;;;;;;;5126658;27;20035;-60
2021/01/29 15:41:34;;;;;;;4.60;1.55;;;;;;;;;;5125681;27;20118;-62
2021/01/29 15:44:03;;;;;;;6.07;1.23;;;;;;;;;;5126915;27;21099;-60
2021/01/29 15:47:17;;;;;;;4.35;1.10;;;;;;;;;;5128076;27;20375;-60
2021/01/29 15:49:45;;;;;;;3.70;1.23;;;;;;;;;;5063320;28;20170;-60
2021/01/29 15:52:16;;;;;;;3.92;1.17;;;;;;;;;;5065087;28;20668;-61
2021/01/29 15:54:49;;;;;;;7.32;1.20;;;;;;;;;;5093214;27;20039;-61